Time;durP1;ratioP1;P1;durP2;ratioP2;P2;SDS_P1;SDS_P2;PMS_P1;PMS_P2;Temp;Humidity;BMP_temperature;BMP_pressure;BME280_temperature;BME280_humidity;BME280_pressure;Samples;Min_cycle;Max_cycle;Signal;HPM_P1;HPM_P2
2022/06/29 00:00:28;;;;;;;3.80;1.90;;;;;;;23.60;39.86;100403.31;4147641;28;20042;-64
2022/06/29 00:02:31;;;;;;;2.38;1.30;;;;;;;23.56;39.89;100396.38;4147643;28;20042;-64
2022/06/29 00:04:35;;;;;;;3.22;1.63;;;;;;;23.57;40.02;100398.13;4150931;28;20045;-64
2022/06/29 00:06:38;;;;;;;7.22;1.75;;;;;;;23.50;40.07;100397.50;4147733;28;20117;-64
2022/06/29 00:08:41;;;;;;;4.47;1.85;;;;;;;23.48;40.07;100399.34;4147570;28;20034;-64
2022/06/29 00:10:44;;;;;;;4.55;1.80;;;;;;;23.46;40.27;100400.34;4130259;28;20498;-64
2022/06/29 00:12:48;;;;;;;4.32;1.92;;;;;;;23.44;40.28;100400.41;4147841;28;20037;-64
2022/06/29 00:14:51;;;;;;;5.88;1.80;;;;;;;23.44;40.25;100397.75;4147734;28;20056;-64
2022/06/29 00:16:54;;;;;;;5.10;2.10;;;;;;;23.45;40.48;100398.59;4147796;28;20408;-64
2022/06/29 00:18:57;;;;;;;3.60;2.08;;;;;;;23.41;40.44;100394.34;4146510;28;20433;-63
2022/06/29 00:21:00;;;;;;;3.55;1.77;;;;;;;23.41;40.48;100386.38;4132291;28;20046;-63
2022/06/29 00:23:03;;;;;;;6.40;2.20;;;;;;;23.37;40.72;100385.66;4145644;28;20088;-63
2022/06/29 00:25:07;;;;;;;5.40;1.38;;;;;;;23.37;41.05;100387.47;4147396;28;20066;-63
2022/06/29 00:27:10;;;;;;;4.88;1.85;;;;;;;23.35;41.37;100385.72;4147875;28;20484;-64
2022/06/29 00:29:14;;;;;;;6.32;1.67;;;;;;;23.33;40.93;100382.28;4148581;28;20048;-64
2022/06/29 00:31:17;;;;;;;4.22;1.65;;;;;;;23.28;41.45;100378.06;4147219;28;20044;-64
2022/06/29 00:33:20;;;;;;;3.17;1.40;;;;;;;23.26;41.70;100386.09;4146087;28;20043;-64
2022/06/29 00:35:23;;;;;;;3.90;1.90;;;;;;;23.28;41.51;100380.72;4129042;28;20142;-63
2022/06/29 00:37:27;;;;;;;3.63;1.58;;;;;;;23.26;41.55;100383.44;4147062;28;20588;-63
2022/06/29 00:39:30;;;;;;;3.15;1.70;;;;;;;23.29;41.52;100383.31;4148182;28;20048;-63
2022/06/29 00:41:38;;;;;;;4.63;1.52;;;;;;;23.28;41.83;100386.88;4146594;28;20033;-63
2022/06/29 00:43:41;;;;;;;3.25;1.65;;;;;;;23.31;41.25;100378.81;4158622;28;20065;-64
2022/06/29 00:45:46;;;;;;;4.20;1.70;;;;;;;23.28;41.69;100384.22;4147080;28;20046;-64
2022/06/29 00:47:48;;;;;;;;;;;;;;;23.16;41.46;100387.38;4128275;28;20484;-64
2022/06/29 00:49:51;;;;;;;7.10;1.73;;;;;;;23.21;41.22;100384.53;4130621;28;19926;-63
2022/06/29 00:52:02;;;;;;;3.22;1.60;;;;;;;23.26;41.14;100380.78;4146804;28;21513;-63
2022/06/29 00:54:05;;;;;;;5.60;1.10;;;;;;;23.23;41.38;100377.38;4146315;28;20045;-63
2022/06/29 00:56:10;;;;;;;3.05;1.40;;;;;;;23.22;41.82;100381.84;4129539;28;20101;-63
2022/06/29 00:58:16;;;;;;;3.55;1.30;;;;;;;23.21;43.23;100384.53;4145794;28;20121;-63
2022/06/29 01:00:19;;;;;;;2.17;1.23;;;;;;;23.20;42.75;100388.97;4122171;28;20066;-63
2022/06/29 01:02:26;;;;;;;2.53;1.50;;;;;;;23.22;42.92;100378.28;4129241;28;20038;-63
2022/06/29 01:04:29;;;;;;;2.92;1.30;;;;;;;23.21;43.26;100377.44;4146978;28;20128;-63
2022/06/29 01:06:33;;;;;;;3.35;1.45;;;;;;;23.22;44.00;100375.66;4146991;28;20034;-64
2022/06/29 01:08:36;;;;;;;4.43;1.92;;;;;;;23.20;43.70;100380.16;4147045;28;20057;-64
2022/06/29 01:10:39;;;;;;;3.75;1.75;;;;;;;23.19;43.76;100371.34;4129183;28;20430;-64
2022/06/29 01:12:42;;;;;;;3.40;1.50;;;;;;;23.19;44.47;100381.97;4147301;28;20038;-64
2022/06/29 01:14:46;;;;;;;3.67;1.52;;;;;;;23.20;44.89;100374.84;4150967;28;20037;-64
2022/06/29 01:16:49;;;;;;;4.57;1.55;;;;;;;23.16;44.72;100379.44;4146362;28;20041;-64
2022/06/29 01:18:54;;;;;;;5.25;1.85;;;;;;;23.14;44.34;100370.66;4152566;28;20038;-63
2022/06/29 01:20:56;;;;;;;;;;;;;;;22.97;44.85;100368.66;4146367;28;20040;-64
2022/06/29 01:23:01;;;;;;;7.53;1.70;;;;;;;23.03;43.86;100371.06;4146698;28;19928;-63
2022/06/29 01:25:04;;;;;;;3.25;1.50;;;;;;;23.05;43.74;100378.94;4147307;28;20042;-63
2022/06/29 01:27:08;;;;;;;2.95;1.45;;;;;;;23.06;44.17;100378.03;4145927;28;20068;-64
2022/06/29 01:29:11;;;;;;;2.33;1.40;;;;;;;23.07;43.60;100374.44;4147380;28;20068;-64
2022/06/29 01:31:15;;;;;;;2.70;1.38;;;;;;;23.08;44.44;100373.53;4147097;28;20042;-63
2022/06/29 01:33:17;;;;;;;5.25;1.50;;;;;;;23.11;43.54;100368.97;4140313;28;20065;-63
2022/06/29 01:35:22;;;;;;;4.43;1.52;;;;;;;23.11;43.60;100368.13;4146822;28;20041;-64
2022/06/29 01:37:25;;;;;;;2.42;1.58;;;;;;;23.10;43.57;100369.00;4146111;28;20045;-64
2022/06/29 01:39:30;;;;;;;3.17;1.52;;;;;;;23.12;43.69;100364.56;4148810;28;20121;-63
2022/06/29 01:41:34;;;;;;;2.75;1.58;;;;;;;23.09;43.55;100367.31;4142970;28;20133;-64
2022/06/29 01:43:37;;;;;;;2.45;1.42;;;;;;;23.16;43.09;100360.88;4112669;28;20047;-64
2022/06/29 01:45:40;;;;;;;5.05;1.90;;;;;;;23.11;43.34;100357.50;4147560;28;20120;-63
2022/06/29 01:47:43;;;;;;;6.95;2.33;;;;;;;23.06;43.38;100362.13;4145970;28;20381;-64
2022/06/29 01:49:46;;;;;;;5.43;1.80;;;;;;;23.04;43.65;100362.16;4128495;28;20066;-64
2022/06/29 01:51:49;;;;;;;3.55;1.75;;;;;;;23.04;43.45;100361.28;4127646;28;20128;-64
2022/06/29 01:54:10;;;;;;;4.95;1.60;;;;;;;23.02;43.21;100348.97;4131225;28;20054;-64
2022/06/29 01:56:34;;;;;;;4.57;1.77;;;;;;;23.00;42.95;100352.63;4151250;28;20117;-63
2022/06/29 01:58:36;;;;;;;;;;;;;;;22.88;42.88;100356.63;4129877;28;20042;-63
2022/06/29 02:00:39;;;;;;;3.58;1.40;;;;;;;22.91;42.93;100351.19;4145693;28;20391;-63
2022/06/29 02:02:42;;;;;;;6.70;1.67;;;;;;;22.97;43.02;100352.75;4128937;28;20066;-63
2022/06/29 02:04:45;;;;;;;3.97;1.80;;;;;;;22.98;42.76;100341.19;4145909;28;20524;-63
2022/06/29 02:06:48;;;;;;;4.63;1.70;;;;;;;22.96;43.01;100348.34;4128860;28;20050;-63
2022/06/29 02:08:51;;;;;;;3.00;1.60;;;;;;;22.98;42.87;100343.84;4146905;28;20489;-63
2022/06/29 02:10:54;;;;;;;5.45;1.40;;;;;;;22.95;43.18;100346.63;4129215;28;20121;-64
2022/06/29 02:12:59;;;;;;;4.68;1.95;;;;;;;22.92;43.31;100331.69;4145913;28;20042;-64
2022/06/29 02:15:01;;;;;;;;;;;;;;;22.84;43.39;100339.09;4148027;28;20042;-64
2022/06/29 02:17:04;;;;;;;4.80;1.38;;;;;;;22.88;43.59;100343.34;4147419;28;19929;-64
2022/06/29 02:19:07;;;;;;;3.00;1.42;;;;;;;22.87;43.40;100338.97;4146597;28;20048;-64
2022/06/29 02:21:11;;;;;;;3.67;1.92;;;;;;;22.87;43.66;100333.66;4129846;28;20042;-64
2022/06/29 02:23:14;;;;;;;3.60;1.42;;;;;;;22.92;43.60;100331.69;4145042;28;20066;-63
2022/06/29 02:25:17;;;;;;;7.38;1.58;;;;;;;22.86;43.17;100333.72;4138232;28;20050;-64
2022/06/29 02:27:20;;;;;;;5.65;1.73;;;;;;;22.87;43.37;100331.03;4127917;28;20466;-64
2022/06/29 02:29:24;;;;;;;2.97;1.60;;;;;;;22.86;43.34;100341.69;4126390;28;20141;-63
2022/06/29 02:36:08;;;;;;;3.40;1.83;;;;;;;22.81;43.35;100328.63;4147288;28;20056;-64
2022/06/29 02:38:11;;;;;;;3.25;1.33;;;;;;;22.76;43.14;100330.56;4146033;28;20037;-63
2022/06/29 02:40:15;;;;;;;2.15;1.30;;;;;;;22.72;43.78;100331.59;4147231;28;20576;-64
2022/06/29 02:42:19;;;;;;;4.78;1.70;;;;;;;22.76;43.56;100333.22;4134085;28;20041;-63
2022/06/29 02:44:24;;;;;;;2.60;1.48;;;;;;;22.71;43.78;100332.53;4146466;28;20136;-64
2022/06/29 02:46:26;;;;;;;3.97;1.35;;;;;;;22.62;44.02;100339.06;4146328;28;20080;-64
2022/06/29 02:48:29;;;;;;;4.18;1.88;;;;;;;22.62;44.29;100328.47;4126912;28;20097;-63
2022/06/29 02:50:34;;;;;;;6.80;1.77;;;;;;;22.61;44.02;100335.53;4145189;28;20132;-64
2022/06/29 02:52:36;;;;;;;7.57;1.67;;;;;;;22.62;44.03;100331.97;4147543;28;20041;-64
2022/06/29 02:54:39;;;;;;;5.63;1.63;;;;;;;22.70;44.10;100336.09;4149963;28;20560;-63
2022/06/29 02:56:42;;;;;;;2.60;1.58;;;;;;;22.66;44.24;100336.22;4130784;28;20053;-63
2022/06/29 02:58:45;;;;;;;5.57;1.77;;;;;;;22.62;44.39;100334.59;4149134;28;20129;-63
2022/06/29 03:00:49;;;;;;;5.35;1.67;;;;;;;22.62;44.65;100339.06;4130727;28;20038;-64
2022/06/29 03:02:52;;;;;;;2.03;1.27;;;;;;;22.60;44.70;100338.22;4148474;28;20033;-64
2022/06/29 03:04:55;;;;;;;4.18;2.00;;;;;;;22.59;44.93;100324.13;4147076;28;20133;-64
2022/06/29 03:06:58;;;;;;;3.40;1.80;;;;;;;22.66;44.77;100332.69;4148871;28;20520;-64
2022/06/29 03:09:01;;;;;;;4.65;1.73;;;;;;;22.72;44.38;100334.25;4131554;28;20076;-63
2022/06/29 03:11:04;;;;;;;5.60;2.33;;;;;;;22.68;44.25;100333.50;4148873;28;20044;-63
2022/06/29 03:13:08;;;;;;;4.45;1.70;;;;;;;22.71;44.09;100333.41;4146654;28;20073;-63
2022/06/29 03:15:11;;;;;;;6.13;2.58;;;;;;;22.62;44.45;100333.75;4147890;28;20129;-63
2022/06/29 03:17:15;;;;;;;3.90;1.90;;;;;;;22.58;44.75;100335.63;4148627;28;20141;-63
2022/06/29 03:19:18;;;;;;;7.35;2.20;;;;;;;22.55;44.87;100332.25;4147667;28;20092;-64
2022/06/29 03:21:21;;;;;;;3.88;1.95;;;;;;;22.55;44.88;100338.41;4148969;28;20205;-63
2022/06/29 03:23:24;;;;;;;2.40;1.55;;;;;;;22.51;45.30;100331.50;4148370;28;20047;-64
2022/06/29 03:25:27;;;;;;;6.80;1.88;;;;;;;22.55;45.37;100343.72;4149502;28;20482;-64
2022/06/29 03:27:32;;;;;;;1.90;1.35;;;;;;;22.54;45.20;100339.31;4149508;28;20478;-64
2022/06/29 03:29:35;;;;;;;4.85;1.83;;;;;;;22.52;45.25;100341.19;4130339;28;20034;-64
2022/06/29 03:31:37;;;;;;;4.55;1.25;;;;;;;22.50;44.86;100348.31;4113272;28;20047;-64
2022/06/29 03:33:42;;;;;;;3.15;1.42;;;;;;;22.45;45.21;100342.31;4148379;28;20041;-64
2022/06/29 03:35:45;;;;;;;2.95;1.48;;;;;;;22.38;45.18;100340.81;4149359;28;20044;-63
2022/06/29 03:37:50;;;;;;;2.72;1.50;;;;;;;22.43;45.17;100338.88;4148117;28;20121;-64
2022/06/29 03:39:52;;;;;;;2.42;1.33;;;;;;;22.45;45.17;100340.53;4147444;28;20462;-64
2022/06/29 03:41:56;;;;;;;4.68;1.38;;;;;;;22.53;44.87;100336.72;4147492;28;20073;-64
2022/06/29 03:43:59;;;;;;;4.75;1.25;;;;;;;22.42;45.23;100335.34;4147521;28;20046;-64
2022/06/29 03:46:01;;;;;;;2.10;1.15;;;;;;;22.37;45.85;100333.78;4147614;28;20045;-64
2022/06/29 03:48:05;;;;;;;2.22;1.23;;;;;;;22.33;45.69;100333.06;4148550;28;20073;-64
2022/06/29 03:50:10;;;;;;;3.87;1.73;;;;;;;22.34;45.67;100339.19;4129242;28;20124;-64
2022/06/29 03:52:13;;;;;;;4.50;1.63;;;;;;;22.35;45.72;100341.78;4150600;28;20612;-63
2022/06/29 03:54:16;;;;;;;2.30;1.10;;;;;;;22.33;46.14;100332.16;4131567;28;20050;-63
2022/06/29 03:56:19;;;;;;;4.22;1.60;;;;;;;22.36;46.20;100327.63;4146945;28;20044;-63
2022/06/29 03:58:22;;;;;;;5.38;1.70;;;;;;;22.38;45.60;100327.56;4147522;28;20486;-63
2022/06/29 04:00:25;;;;;;;3.40;1.40;;;;;;;22.37;45.56;100323.19;4146628;28;20513;-69
2022/06/29 04:02:28;;;;;;;2.17;1.15;;;;;;;22.43;48.35;100325.63;4149289;28;20501;-66
2022/06/29 04:04:31;;;;;;;3.88;1.58;;;;;;;22.55;46.33;100316.38;4114787;28;20043;-66
2022/06/29 04:06:35;;;;;;;4.13;1.80;;;;;;;22.61;45.38;100316.13;4143174;28;20045;-66
2022/06/29 04:08:39;;;;;;;4.47;1.88;;;;;;;22.53;45.59;100324.38;4132612;28;20038;-68
2022/06/29 04:10:42;;;;;;;5.37;1.93;;;;;;;22.52;45.20;100327.94;4148746;28;20084;-66
2022/06/29 04:12:45;;;;;;;3.92;1.73;;;;;;;22.52;46.76;100325.28;4147200;28;20335;-66
2022/06/29 04:14:48;;;;;;;5.50;1.95;;;;;;;22.56;45.55;100320.72;4146591;28;20049;-67
2022/06/29 04:16:52;;;;;;;4.93;1.67;;;;;;;22.51;45.84;100326.19;4154191;28;20129;-66
2022/06/29 04:18:55;;;;;;;3.22;1.63;;;;;;;22.53;46.19;100324.38;4147361;28;20587;-66
2022/06/29 04:21:07;;;;;;;4.85;2.38;;;;;;;22.57;45.63;100320.66;4147720;28;20065;-65
2022/06/29 04:23:11;;;;;;;8.68;2.00;;;;;;;22.61;44.85;100318.78;4148146;28;20053;-65
2022/06/29 04:25:14;;;;;;;5.35;2.00;;;;;;;22.57;44.77;100320.66;4145938;28;20034;-65
2022/06/29 04:27:17;;;;;;;6.53;1.95;;;;;;;22.52;44.75;100317.34;4147555;28;20029;-64
2022/06/29 04:29:20;;;;;;;5.95;2.13;;;;;;;22.46;44.50;100309.63;4161448;28;20472;-63
2022/06/29 04:31:23;;;;;;;6.00;1.90;;;;;;;22.40;44.97;100315.13;4131270;28;20042;-63
2022/06/29 04:33:26;;;;;;;5.15;2.10;;;;;;;22.31;45.21;100311.88;4147329;28;20062;-62
2022/06/29 04:35:29;;;;;;;2.83;1.40;;;;;;;22.28;45.37;100314.66;4148409;28;20521;-62
2022/06/29 04:37:32;;;;;;;3.95;1.50;;;;;;;22.26;45.70;100311.19;4148680;28;20038;-63
2022/06/29 04:39:36;;;;;;;3.35;1.63;;;;;;;22.25;45.81;100308.59;4147382;28;20109;-62
2022/06/29 04:41:39;;;;;;;5.97;2.10;;;;;;;22.24;45.98;100314.78;4148266;28;20361;-63
2022/06/29 04:43:42;;;;;;;4.45;1.77;;;;;;;22.24;46.04;100318.34;4149221;28;20551;-63
2022/06/29 04:48:06;;;;;;;5.68;1.75;;;;;;;22.25;44.89;100319.19;4148513;28;20049;-62
2022/06/29 04:50:09;;;;;;;2.97;1.40;;;;;;;22.23;45.13;100313.94;4148495;28;20045;-62
2022/06/29 04:52:12;;;;;;;3.55;1.65;;;;;;;22.25;45.23;100319.19;4146625;28;20042;-63
2022/06/29 04:54:14;;;;;;;4.15;1.98;;;;;;;22.25;45.15;100316.53;4137186;28;20042;-62
2022/06/29 04:56:19;;;;;;;4.40;2.08;;;;;;;22.24;45.40;100323.63;4151496;28;20496;-63
2022/06/29 04:58:22;;;;;;;3.63;1.70;;;;;;;22.21;45.58;100313.16;4148259;28;20564;-62
2022/06/29 05:00:25;;;;;;;3.45;1.75;;;;;;;22.19;46.23;100320.25;4148255;28;20457;-63
2022/06/29 05:02:27;;;;;;;4.38;1.67;;;;;;;22.19;46.52;100314.97;4114266;28;20130;-62
2022/06/29 05:04:31;;;;;;;4.22;1.67;;;;;;;22.22;47.23;100311.34;4148187;28;20096;-63
2022/06/29 05:06:34;;;;;;;3.38;1.75;;;;;;;22.24;46.48;100307.72;4148144;28;20049;-63
2022/06/29 05:08:37;;;;;;;7.28;2.00;;;;;;;22.21;46.50;100310.50;4149493;28;20026;-62
2022/06/29 05:10:40;;;;;;;5.22;1.52;;;;;;;22.21;46.54;100306.97;4148039;28;20393;-63
2022/06/29 05:12:44;;;;;;;3.38;2.28;;;;;;;22.22;47.01;100312.22;4147326;28;20044;-63
2022/06/29 05:14:47;;;;;;;3.80;1.52;;;;;;;22.22;47.10;100320.16;4114711;28;20055;-63
2022/06/29 05:16:50;;;;;;;3.22;1.83;;;;;;;22.37;46.94;100320.53;4145098;28;20152;-63
2022/06/29 05:18:53;;;;;;;2.78;1.80;;;;;;;22.35;46.27;100328.53;4147046;28;20404;-63
2022/06/29 05:20:56;;;;;;;5.43;1.70;;;;;;;22.25;46.09;100317.41;4130500;28;20110;-63
2022/06/29 05:22:59;;;;;;;6.60;1.92;;;;;;;22.27;46.40;100317.34;4147574;28;20080;-63
2022/06/29 05:25:02;;;;;;;5.18;2.38;;;;;;;22.19;45.99;100320.25;4130369;28;20432;-63
2022/06/29 05:27:06;;;;;;;4.03;1.52;;;;;;;22.17;46.57;100321.25;4147656;28;20567;-62
2022/06/29 05:29:10;;;;;;;6.60;1.92;;;;;;;22.13;46.51;100315.19;4152550;28;20030;-63
2022/06/29 05:31:13;;;;;;;5.53;2.33;;;;;;;22.13;46.98;100315.19;4146555;28;20045;-64
2022/06/29 05:33:16;;;;;;;10.73;2.30;;;;;;;22.19;47.15;100322.06;4139224;28;20045;-63
2022/06/29 05:35:19;;;;;;;5.63;2.42;;;;;;;22.14;46.90;100323.09;4147735;28;20046;-63
2022/06/29 05:37:22;;;;;;;8.35;2.03;;;;;;;22.17;46.98;100316.81;4147672;28;20044;-62
2022/06/29 05:39:25;;;;;;;10.40;2.30;;;;;;;22.14;46.51;100322.22;4130313;28;20121;-63
2022/06/29 05:41:28;;;;;;;4.97;2.22;;;;;;;22.21;47.26;100326.38;4128881;28;20054;-63
2022/06/29 05:43:31;;;;;;;10.85;2.30;;;;;;;22.17;46.98;100324.75;4129765;28;20046;-63
2022/06/29 05:45:36;;;;;;;7.27;2.00;;;;;;;22.16;47.44;100327.47;4147511;28;20129;-63
2022/06/29 05:47:38;;;;;;;7.55;1.77;;;;;;;22.16;47.77;100319.53;4147515;28;20100;-63
2022/06/29 05:49:47;;;;;;;8.35;2.13;;;;;;;22.13;47.72;100310.75;4146754;28;20068;-63
2022/06/29 05:51:50;;;;;;;7.35;2.10;;;;;;;22.17;48.38;100310.69;4150453;28;20069;-63
2022/06/29 05:53:53;;;;;;;6.55;2.40;;;;;;;22.16;47.77;100317.72;4147613;28;20060;-64
2022/06/29 05:55:56;;;;;;;9.13;3.03;;;;;;;22.20;46.88;100319.34;4147744;28;20141;-64
2022/06/29 05:57:59;;;;;;;6.47;2.65;;;;;;;22.19;46.75;100319.41;4130243;28;20073;-64
2022/06/29 06:00:04;;;;;;;15.00;2.50;;;;;;;22.19;47.15;100317.63;4130296;28;20046;-64
2022/06/29 06:02:14;;;;;;;7.47;2.65;;;;;;;22.19;48.34;100308.81;4152336;28;20049;-64
2022/06/29 06:04:17;;;;;;;;;;;;;;;22.05;48.44;100309.31;4140204;28;20137;-64
2022/06/29 06:06:20;;;;;;;5.85;2.00;;;;;;;22.08;49.67;100309.22;4147798;28;19925;-64
2022/06/29 06:08:23;;;;;;;2.85;1.60;;;;;;;22.14;50.85;100312.50;4130048;28;20050;-64
2022/06/29 06:10:26;;;;;;;3.53;1.92;;;;;;;22.18;51.02;100313.25;4129997;28;20506;-64
2022/06/29 06:12:30;;;;;;;8.13;2.03;;;;;;;22.20;50.69;100318.50;4147119;28;20044;-64
2022/06/29 06:14:33;;;;;;;4.72;1.80;;;;;;;22.19;51.08;100312.31;4146568;28;20068;-64
2022/06/29 06:16:36;;;;;;;7.38;1.80;;;;;;;22.23;51.25;100321.03;4147445;28;20049;-64
2022/06/29 06:18:45;;;;;;;7.47;2.35;;;;;;;22.25;50.75;100328.00;4130027;28;20050;-64
2022/06/29 06:20:48;;;;;;;13.57;2.53;;;;;;;22.25;51.24;100320.06;4147482;28;20038;-64
2022/06/29 06:22:50;;;;;;;7.03;2.13;;;;;;;22.25;51.24;100317.41;4147153;28;20405;-64
2022/06/29 06:24:53;;;;;;;6.75;2.17;;;;;;;22.26;51.60;100321.78;4151484;28;20073;-64
2022/06/29 06:26:56;;;;;;;6.85;2.20;;;;;;;22.26;51.65;100327.06;4150485;28;20069;-64
2022/06/29 06:28:59;;;;;;;8.43;2.65;;;;;;;22.28;51.76;100335.84;4150572;28;20225;-64
2022/06/29 06:31:02;;;;;;;8.02;2.45;;;;;;;22.30;51.92;100333.13;4148868;28;20040;-64
2022/06/29 06:33:05;;;;;;;5.78;2.55;;;;;;;22.31;51.78;100333.06;4151199;28;20093;-64
2022/06/29 06:35:10;;;;;;;6.40;2.30;;;;;;;22.37;51.79;100339.09;4150365;28;20126;-65
2022/06/29 06:37:13;;;;;;;8.02;2.60;;;;;;;22.39;51.49;100343.41;4150466;28;20042;-63
2022/06/29 06:39:16;;;;;;;10.20;2.90;;;;;;;22.42;51.51;100347.75;4133020;28;20121;-63
2022/06/29 06:41:25;;;;;;;9.52;2.30;;;;;;;22.45;51.61;100351.13;4132896;28;20135;-64
2022/06/29 06:43:28;;;;;;;7.75;3.17;;;;;;;22.53;50.41;100345.56;4133227;28;20616;-64
2022/06/29 06:45:31;;;;;;;6.53;2.63;;;;;;;22.59;50.76;100342.69;4147524;28;20046;-63
2022/06/29 06:47:34;;;;;;;8.43;2.72;;;;;;;22.60;49.57;100344.38;4150232;28;20042;-63
2022/06/29 06:49:37;;;;;;;5.43;2.55;;;;;;;22.66;50.38;100346.81;4150235;28;20044;-64
2022/06/29 06:51:41;;;;;;;7.15;2.45;;;;;;;22.74;50.40;100351.81;4149907;28;20096;-63
2022/06/29 06:53:45;;;;;;;6.68;2.95;;;;;;;22.88;49.73;100351.31;4150204;28;20052;-63
2022/06/29 06:55:48;;;;;;;11.30;3.47;;;;;;;22.86;47.77;100353.13;4150933;28;20040;-64
2022/06/29 06:57:51;;;;;;;4.88;2.38;;;;;;;22.93;47.65;100341.38;4147210;28;20163;-63
2022/06/29 06:59:54;;;;;;;7.88;2.72;;;;;;;22.95;48.64;100350.13;4150251;28;20066;-64
2022/06/29 07:01:57;;;;;;;7.03;2.25;;;;;;;23.00;48.31;100348.16;4132286;28;20042;-63
2022/06/29 07:04:00;;;;;;;12.55;2.38;;;;;;;23.08;48.41;100347.84;4150083;28;20053;-64
2022/06/29 07:06:04;;;;;;;10.68;3.17;;;;;;;23.28;46.97;100341.78;4132418;28;20050;-64
2022/06/29 07:08:08;;;;;;;11.32;2.90;;;;;;;23.25;46.38;100344.56;4151001;28;20405;-64
2022/06/29 07:10:11;;;;;;;7.68;2.28;;;;;;;23.25;46.62;100344.56;4149800;28;20172;-64
2022/06/29 07:12:14;;;;;;;6.38;2.50;;;;;;;23.26;48.07;100341.00;4149572;28;20573;-64
2022/06/29 07:14:18;;;;;;;8.02;2.15;;;;;;;23.25;48.16;100336.63;4149902;28;20041;-64
2022/06/29 07:16:21;;;;;;;4.22;2.47;;;;;;;23.25;48.59;100333.09;4147857;28;20041;-63
2022/06/29 07:18:24;;;;;;;8.20;2.80;;;;;;;23.26;47.72;100338.34;4147525;28;20116;-63
2022/06/29 07:20:28;;;;;;;4.80;2.38;;;;;;;23.31;48.24;100338.16;4149230;28;20042;-63
2022/06/29 07:22:31;;;;;;;4.70;2.05;;;;;;;23.35;48.52;100335.31;4130380;28;20461;-63
2022/06/29 07:24:35;;;;;;;7.20;2.35;;;;;;;23.38;47.68;100331.69;4132095;28;20046;-63
2022/06/29 07:26:38;;;;;;;6.43;2.22;;;;;;;23.42;47.53;100329.75;4149798;28;20125;-64
2022/06/29 07:28:41;;;;;;;3.67;2.22;;;;;;;23.45;47.18;100326.97;4149714;28;20037;-63
2022/06/29 07:30:44;;;;;;;4.95;2.33;;;;;;;23.51;47.08;100329.38;4149780;28;20122;-64
2022/06/29 07:32:47;;;;;;;6.45;2.50;;;;;;;23.56;47.08;100326.53;4147225;28;20437;-64
2022/06/29 07:34:50;;;;;;;4.22;2.00;;;;;;;23.60;46.93;100331.66;4132062;28;20038;-64
2022/06/29 07:36:53;;;;;;;5.45;2.53;;;;;;;23.62;46.84;100320.97;4149527;28;20132;-64
2022/06/29 07:38:56;;;;;;;6.22;2.50;;;;;;;23.69;46.85;100323.28;4132052;28;20521;-64
2022/06/29 07:41:00;;;;;;;4.15;2.30;;;;;;;23.77;46.97;100319.44;4149489;28;20515;-64
2022/06/29 07:43:03;;;;;;;4.47;2.42;;;;;;;23.82;46.93;100334.25;4148117;28;20065;-64
2022/06/29 07:45:08;;;;;;;9.63;3.53;;;;;;;23.96;45.93;100325.72;4149312;28;20048;-64
2022/06/29 07:47:11;;;;;;;7.32;2.63;;;;;;;24.01;46.73;100325.53;4131930;28;20042;-64
2022/06/29 07:49:14;;;;;;;10.15;3.33;;;;;;;24.07;45.90;100329.69;4164585;28;20516;-64
2022/06/29 07:51:17;;;;;;;10.02;2.80;;;;;;;24.07;46.48;100327.91;4149163;28;20504;-64
2022/06/29 07:53:20;;;;;;;16.00;4.30;;;;;;;24.09;45.51;100328.69;4148909;28;20072;-63
2022/06/29 07:55:24;;;;;;;14.63;4.63;;;;;;;24.07;45.06;100321.72;4135577;28;20128;-64
2022/06/29 07:57:29;;;;;;;13.80;3.75;;;;;;;24.14;45.49;100332.00;4149058;28;20521;-64
2022/06/29 07:59:31;;;;;;;;;;;;;;;24.08;45.61;100324.31;4132365;28;20046;-63
2022/06/29 08:01:34;;;;;;;10.18;4.13;;;;;;;24.18;45.24;100322.09;4131616;28;20029;-65
2022/06/29 08:03:40;;;;;;;10.18;3.38;;;;;;;24.22;45.27;100326.34;4149064;28;20465;-64
2022/06/29 08:05:45;;;;;;;6.90;3.10;;;;;;;24.19;45.29;100326.47;4131829;28;20046;-63
2022/06/29 08:07:48;;;;;;;4.70;2.58;;;;;;;24.25;46.19;100331.53;4153098;28;20033;-64
2022/06/29 08:09:53;;;;;;;8.00;4.47;;;;;;;24.26;45.71;100327.94;4131515;28;20497;-63
2022/06/29 08:11:56;;;;;;;6.63;3.55;;;;;;;24.29;46.10;100325.13;4148549;28;20034;-63
2022/06/29 08:14:00;;;;;;;7.50;2.97;;;;;;;24.40;45.93;100328.19;4148918;28;20501;-64
2022/06/29 08:16:03;;;;;;;5.57;3.55;;;;;;;24.49;46.40;100326.91;4148988;28;20057;-63
2022/06/29 08:18:06;;;;;;;5.95;3.10;;;;;;;24.46;46.61;100324.38;4148906;28;20423;-63
2022/06/29 08:20:10;;;;;;;7.55;3.38;;;;;;;24.47;46.67;100330.56;4151382;28;20033;-63
2022/06/29 08:22:13;;;;;;;4.32;2.80;;;;;;;24.43;46.52;100336.94;4138597;28;20050;-64
2022/06/29 08:24:15;;;;;;;8.18;3.35;;;;;;;24.50;46.75;100341.03;4151526;28;20116;-63
2022/06/29 08:26:18;;;;;;;4.55;3.45;;;;;;;24.49;46.76;100328.69;4148725;28;20121;-64
2022/06/29 08:28:41;;;;;;;5.05;2.78;;;;;;;24.58;47.99;100336.25;4148691;28;20041;-63
2022/06/29 08:30:46;;;;;;;6.35;2.95;;;;;;;24.74;47.76;100331.09;4148310;28;20064;-63
2022/06/29 08:32:49;;;;;;;3.92;2.85;;;;;;;24.87;46.70;100328.75;4151780;28;20038;-63
2022/06/29 08:34:52;;;;;;;7.22;3.30;;;;;;;24.93;46.60;100323.13;4131179;28;20049;-64
2022/06/29 08:36:55;;;;;;;4.68;3.00;;;;;;;24.76;46.73;100328.38;4148618;28;20046;-64
2022/06/29 08:39:00;;;;;;;5.53;2.72;;;;;;;24.60;47.38;100326.41;4115060;28;20133;-64
2022/06/29 08:41:03;;;;;;;4.95;3.25;;;;;;;24.45;47.28;100327.13;4145642;28;20069;-64
2022/06/29 08:43:06;;;;;;;5.45;3.10;;;;;;;24.40;47.99;100324.66;4148923;28;20113;-63
2022/06/29 08:45:11;;;;;;;6.70;3.40;;;;;;;24.37;48.95;100325.66;4148240;28;20042;-63
2022/06/29 08:47:16;;;;;;;6.68;3.63;;;;;;;24.36;48.41;100329.25;4147813;28;20568;-63
2022/06/29 08:49:20;;;;;;;5.40;2.90;;;;;;;24.36;48.89;100331.91;4131053;28;20070;-64
2022/06/29 08:51:24;;;;;;;3.70;2.83;;;;;;;24.34;49.29;100319.63;4147951;28;20038;-63
2022/06/29 08:53:27;;;;;;;4.28;2.55;;;;;;;24.33;50.24;100329.38;4147408;28;20093;-63
2022/06/29 08:55:32;;;;;;;7.40;3.03;;;;;;;24.46;49.27;100326.16;4147273;28;20053;-64
2022/06/29 08:57:35;;;;;;;;;;;;;;;24.53;49.03;100325.81;4148553;28;20049;-63
2022/06/29 08:59:38;;;;;;;5.88;3.15;;;;;;;24.68;48.93;100329.59;4148324;28;19937;-64
2022/06/29 09:02:02;;;;;;;4.95;2.92;;;;;;;24.89;48.17;100324.19;4130646;28;20196;-63
2022/06/29 09:04:08;;;;;;;7.47;3.55;;;;;;;24.91;47.68;100319.66;4148215;28;20509;-63
2022/06/29 09:06:11;;;;;;;4.82;3.38;;;;;;;24.97;46.82;100318.50;4151565;28;20042;-63
2022/06/29 09:08:14;;;;;;;4.93;3.33;;;;;;;24.87;47.35;100323.41;4148031;28;20050;-63
2022/06/29 09:10:21;;;;;;;6.47;3.85;;;;;;;24.82;47.24;100323.63;4130737;28;20065;-63
2022/06/29 09:12:24;;;;;;;5.18;3.70;;;;;;;24.86;47.33;100324.34;4147743;28;20042;-63
2022/06/29 09:14:28;;;;;;;4.95;3.70;;;;;;;24.95;47.20;100320.38;4148072;28;20377;-63
2022/06/29 09:16:30;;;;;;;4.45;3.45;;;;;;;24.98;47.17;100325.56;4129964;28;20137;-64
2022/06/29 09:18:34;;;;;;;5.35;2.67;;;;;;;25.16;47.51;100318.47;4152365;28;20536;-64
2022/06/29 09:20:40;;;;;;;4.72;3.70;;;;;;;25.26;47.10;100319.75;4147916;28;20041;-64
2022/06/29 09:22:53;;;;;;;4.65;3.42;;;;;;;25.32;46.95;100319.50;4130224;28;20101;-63
2022/06/29 09:24:56;;;;;;;5.97;4.18;;;;;;;25.41;46.43;100310.19;4148031;28;20129;-64
2022/06/29 09:27:19;;;;;;;4.45;3.00;;;;;;;25.49;47.20;100317.78;4152813;28;20046;-64
2022/06/29 09:29:24;;;;;;;5.73;3.30;;;;;;;25.54;47.38;100313.94;4147818;28;20042;-63
2022/06/29 09:31:27;;;;;;;8.60;4.30;;;;;;;25.53;47.56;100312.22;4147726;28;20061;-64
2022/06/29 09:33:31;;;;;;;5.20;3.78;;;;;;;25.51;46.54;100308.78;4130204;28;20045;-63
2022/06/29 09:35:36;;;;;;;5.60;3.60;;;;;;;25.53;46.80;100316.69;4147796;28;20588;-65
2022/06/29 09:37:41;;;;;;;5.60;3.38;;;;;;;25.52;47.23;100314.97;4146575;28;20042;-63
2022/06/29 09:39:44;;;;;;;;;;;;;;;25.44;47.35;100312.69;4152574;28;20124;-63
2022/06/29 09:41:47;;;;;;;5.18;3.40;;;;;;;25.66;47.56;100309.78;4146189;28;19922;-63
2022/06/29 09:43:50;;;;;;;5.35;3.60;;;;;;;25.69;46.98;100304.31;4147684;28;20503;-62